Time;durP1;ratioP1;P1;durP2;ratioP2;P2;SDS_P1;SDS_P2;PMS_P1;PMS_P2;Temp;Humidity;BMP_temperature;BMP_pressure;BME280_temperature;BME280_humidity;BME280_pressure;Samples;Min_cycle;Max_cycle;Signal;HPM_P1;HPM_P2
2022/07/13 00:00:44;;;;;;;;;;;;;;;;;;;;;
2022/07/13 00:03:36;;;;;;;6.33;3.13;;;19.80;53.00;;;;;;4925821;29;20461;-87
2022/07/13 00:09:58;;;;;;;14.23;3.70;;;19.90;49.40;;;;;;4832567;29;20446;-87
2022/07/13 00:21:41;;;;;;;7.57;3.90;;;19.90;56.30;;;;;;4939376;29;20453;-87
2022/07/13 00:24:19;;;;;;;9.30;3.77;;;20.00;57.40;;;;;;4942663;29;20514;-87
2022/07/13 00:27:20;;;;;;;7.30;3.97;;;19.80;60.00;;;;;;4927021;29;20453;-86
2022/07/13 00:30:15;;;;;;;;;;;;;;;;;;;;;
2022/07/13 00:32:54;;;;;;;7.60;3.57;;;19.80;59.40;;;;;;4936193;29;20484;-87
2022/07/13 00:39:01;;;;;;;10.03;4.60;;;19.80;60.80;;;;;;4934836;29;20478;-86
2022/07/13 00:41:45;;;;;;;9.03;3.60;;;19.70;61.60;;;;;;4944479;29;20465;-86
2022/07/13 00:44:37;;;;;;;6.63;3.10;;;19.70;61.60;;;;;;4944796;29;20525;-86
2022/07/13 00:47:07;;;;;;;8.27;3.70;;;19.70;59.90;;;;;;4926542;29;20465;-85
2022/07/13 00:49:40;;;;;;;8.40;3.23;;;19.70;59.60;;;;;;4926717;29;20496;-86
2022/07/13 00:52:34;;;;;;;;;;;;;;;;;;;;;
2022/07/13 00:55:13;;;;;;;10.70;3.10;;;19.60;55.30;;;;;;4929321;29;20485;-85
2022/07/13 00:57:48;;;;;;;7.60;3.10;;;19.70;53.00;;;;;;4945198;29;20519;-86
2022/07/13 01:00:44;;;;;;;13.27;2.97;;;19.80;53.00;;;;;;4933546;29;20456;-86
2022/07/13 01:03:29;;;;;;;9.13;4.03;;;19.90;52.20;;;;;;4943774;29;20485;-86
2022/07/13 01:05:59;;;;;;;10.10;4.10;;;20.00;50.80;;;;;;4924995;29;20753;-86
2022/07/13 01:08:44;;;;;;;6.37;3.10;;;20.10;49.40;;;;;;4940598;29;20453;-86
2022/07/13 01:14:13;;;;;;;6.70;2.83;;;20.30;49.30;;;;;;4915390;29;20926;-86
2022/07/13 01:16:56;;;;;;;6.77;2.60;;;20.10;50.90;;;;;;4923797;29;20482;-86
2022/07/13 01:19:47;;;;;;;6.77;2.93;;;20.00;50.10;;;;;;4924075;29;20467;-86
2022/07/13 01:22:56;;;;;;;;;;;;;;;;;;;;;
2022/07/13 01:25:59;;;;;;;6.13;2.23;;;20.10;47.10;;;;;;4937794;29;20469;-86
2022/07/13 01:32:23;;;;;;;6.00;2.23;;;20.20;44.60;;;;;;4917298;29;20494;-86
2022/07/13 01:38:14;;;;;;;;;;;;;;;;;;;;;
2022/07/13 01:47:35;;;;;;;5.30;2.20;;;20.40;46.20;;;;;;4925098;29;20522;-86
2022/07/13 01:50:09;;;;;;;7.60;2.30;;;20.20;48.40;;;;;;4921707;29;20466;-87
2022/07/13 01:52:59;;;;;;;5.80;2.27;;;20.00;48.90;;;;;;4922917;29;20498;-86
2022/07/13 01:55:46;;;;;;;11.60;2.60;;;20.00;48.20;;;;;;4924322;29;20467;-86
2022/07/13 01:58:30;;;;;;;6.50;2.93;;;20.00;48.00;;;;;;4941933;29;20482;-86
2022/07/13 02:01:23;;;;;;;9.07;2.93;;;20.10;44.50;;;;;;4922996;29;20492;-86
2022/07/13 02:03:59;;;;;;;6.43;2.80;;;20.20;43.40;;;;;;4926689;29;20494;-85
2022/07/13 02:06:42;;;;;;;8.17;2.60;;;20.40;44.00;;;;;;4941279;29;20469;-86
2022/07/13 02:09:41;;;;;;;;;;;;;;;;;;;;;
2022/07/13 02:12:25;;;;;;;8.30;2.70;;;20.20;41.10;;;;;;4941842;29;20591;-86
2022/07/13 02:15:12;;;;;;;7.37;2.03;;;20.40;37.10;;;;;;4930595;29;20491;-86
2022/07/13 02:17:59;;;;;;;4.37;1.67;;;20.60;34.60;;;;;;4918250;29;20483;-86
2022/07/13 02:20:34;;;;;;;6.40;1.70;;;20.80;33.20;;;;;;4938187;29;20465;-86
2022/07/13 02:23:27;;;;;;;4.90;1.47;;;21.10;31.30;;;;;;4936380;29;20530;-86
2022/07/13 02:26:24;;;;;;;4.97;1.77;;;21.20;34.60;;;;;;4922943;29;20463;-86
2022/07/13 02:31:41;;;;;;;8.90;2.13;;;21.00;34.30;;;;;;4911045;29;20537;-86
2022/07/13 02:34:38;;;;;;;5.77;2.10;;;20.80;37.70;;;;;;4927234;29;20466;-87
2022/07/13 02:37:51;;;;;;;5.57;2.40;;;20.70;38.60;;;;;;4920924;29;20464;-86
2022/07/13 02:40:33;;;;;;;13.87;2.70;;;20.50;39.50;;;;;;4921863;29;20492;-86
2022/07/13 02:43:56;;;;;;;5.27;2.27;;;20.40;41.50;;;;;;4925004;29;20527;-87
2022/07/13 02:46:34;;;;;;;11.60;3.37;;;20.30;43.50;;;;;;4940806;29;20470;-86
2022/07/13 02:49:10;;;;;;;8.63;2.80;;;20.10;43.20;;;;;;4929335;29;20450;-86
2022/07/13 03:01:00;;;;;;;7.90;2.77;;;20.00;42.00;;;;;;4862246;29;20461;-86
2022/07/13 03:04:00;;;;;;;;;;;;;;;;;;;;;
2022/07/13 03:10:11;;;;;;;9.37;2.73;;;20.30;35.60;;;;;;4924683;29;20473;-88
2022/07/13 03:13:21;;;;;;;;;;;;;;;;;;;;;
2022/07/13 03:22:53;;;;;;;;;;;;;;;;;;;;;
2022/07/13 03:25:55;;;;;;;6.47;2.90;;;20.20;42.40;;;;;;4927781;29;20520;-86
2022/07/13 03:32:02;;;;;;;6.90;3.33;;;19.90;44.30;;;;;;4920946;29;20466;-86
2022/07/13 03:37:36;;;;;;;5.97;2.73;;;19.90;46.40;;;;;;4936774;29;20486;-83
2022/07/13 03:40:04;;;;;;;6.03;2.93;;;19.80;47.50;;;;;;4931259;29;20459;-84
2022/07/13 03:42:33;;;;;;;5.93;2.80;;;19.80;48.60;;;;;;4955586;29;20475;-84
2022/07/13 03:45:00;;;;;;;5.93;2.80;;;19.70;49.00;;;;;;4967286;29;20475;-84
2022/07/13 03:47:26;;;;;;;5.60;2.33;;;19.70;48.70;;;;;;4948810;29;20455;-84
2022/07/13 03:49:53;;;;;;;5.10;2.20;;;19.70;50.20;;;;;;4946002;29;20455;-84
2022/07/13 03:52:21;;;;;;;7.57;3.40;;;19.70;51.10;;;;;;4949446;29;20479;-85
2022/07/13 03:54:48;;;;;;;7.90;3.47;;;19.70;51.40;;;;;;4967800;29;20470;-83
2022/07/13 03:57:14;;;;;;;6.97;3.80;;;19.60;51.80;;;;;;4947515;29;20875;-83
2022/07/13 03:59:42;;;;;;;9.70;2.93;;;19.60;52.80;;;;;;4967376;29;20493;-84
2022/07/13 04:02:10;;;;;;;5.37;2.87;;;19.60;52.80;;;;;;4959734;29;20473;-84
2022/07/13 04:04:36;;;;;;;5.30;2.50;;;19.50;52.70;;;;;;4945911;29;20466;-83
2022/07/13 04:07:03;;;;;;;6.90;2.70;;;19.50;52.70;;;;;;4946100;29;20464;-85
2022/07/13 04:09:30;;;;;;;5.93;2.60;;;19.60;52.80;;;;;;4947431;29;20480;-85
2022/07/13 04:11:57;;;;;;;6.87;3.07;;;19.50;53.60;;;;;;4948147;29;20843;-85
2022/07/13 04:14:59;;;;;;;5.20;2.67;;;19.40;54.00;;;;;;4933871;29;20532;-86
2022/07/13 04:20:53;;;;;;;5.17;2.80;;;19.50;55.10;;;;;;4929135;29;20533;-85
2022/07/13 04:24:34;;;;;;;;;;;;;;;;;;;;;
2022/07/13 04:27:07;;;;;;;6.07;3.10;;;19.50;56.10;;;;;;4866249;29;20461;-86
2022/07/13 04:46:12;;;;;;;5.60;2.87;;;19.60;57.40;;;;;;4987394;23;20583;-84
2022/07/13 04:48:44;;;;;;;6.20;2.93;;;19.70;56.70;;;;;;4928651;29;20456;-84
2022/07/13 04:53:51;;;;;;;6.27;2.70;;;19.90;57.30;;;;;;4989867;23;20487;-84
2022/07/13 04:56:21;;;;;;;7.07;2.67;;;20.00;54.80;;;;;;4941537;29;20460;-83
2022/07/13 04:58:48;;;;;;;5.27;2.23;;;20.10;54.40;;;;;;4940708;29;20537;-84
2022/07/13 05:12:39;;;;;;;6.03;2.50;;;20.30;53.00;;;;;;4971373;23;20499;-85
2022/07/13 05:15:07;;;;;;;4.70;2.10;;;20.40;52.20;;;;;;4944759;29;20516;-85
2022/07/13 05:17:36;;;;;;;4.97;2.03;;;20.40;52.20;;;;;;4945042;29;20460;-84
2022/07/13 05:20:03;;;;;;;5.10;2.50;;;20.50;51.80;;;;;;4946856;29;20480;-84
2022/07/13 05:22:30;;;;;;;6.40;2.57;;;20.60;51.10;;;;;;4937031;29;20560;-85
2022/07/13 05:24:57;;;;;;;5.03;2.00;;;20.60;51.30;;;;;;4925437;29;20555;-84
2022/07/13 05:27:23;;;;;;;4.97;2.20;;;20.70;51.90;;;;;;4924294;29;20455;-84
2022/07/13 05:29:51;;;;;;;6.20;2.83;;;20.70;51.90;;;;;;4925782;29;20458;-84
2022/07/13 05:32:17;;;;;;;6.97;3.10;;;20.70;51.10;;;;;;4925037;29;20487;-84
2022/07/13 05:34:46;;;;;;;5.90;2.10;;;20.80;50.50;;;;;;4924166;29;20469;-84
2022/07/13 05:37:13;;;;;;;7.87;3.20;;;20.90;49.80;;;;;;4924292;29;20464;-84
2022/07/13 05:40:45;;;;;;;8.30;2.30;;;21.10;49.50;;;;;;4925942;29;20479;-86
2022/07/13 05:43:15;;;;;;;4.83;2.23;;;21.30;48.60;;;;;;4890833;29;21079;-86
2022/07/13 05:45:52;;;;;;;6.27;2.50;;;21.30;50.70;;;;;;4924188;29;20460;-86
2022/07/13 05:48:19;;;;;;;5.67;2.50;;;21.40;52.10;;;;;;4925290;29;20527;-84
2022/07/13 05:50:47;;;;;;;9.53;2.30;;;21.60;49.20;;;;;;4926016;29;20453;-85
2022/07/13 05:53:14;;;;;;;8.00;2.30;;;21.70;47.30;;;;;;4924831;29;20469;-85
2022/07/13 05:55:41;;;;;;;4.63;1.93;;;21.90;46.10;;;;;;4924879;29;20464;-85
2022/07/13 05:58:08;;;;;;;5.27;2.30;;;22.10;46.30;;;;;;4925727;29;20464;-85
2022/07/13 06:00:34;;;;;;;8.43;2.43;;;22.40;42.70;;;;;;4927239;29;20469;-85
2022/07/13 06:03:01;;;;;;;5.87;2.23;;;22.70;40.30;;;;;;4924395;29;20857;-84
2022/07/13 06:05:29;;;;;;;5.83;2.67;;;23.00;39.30;;;;;;4923985;29;20466;-84
2022/07/13 06:07:57;;;;;;;6.80;2.47;;;23.20;38.30;;;;;;4923264;29;20462;-86
2022/07/13 06:10:24;;;;;;;4.40;1.90;;;24.00;38.10;;;;;;4921504;29;20459;-85
2022/07/13 06:12:50;;;;;;;6.90;2.07;;;24.40;36.40;;;;;;4924553;29;20522;-85
2022/07/13 06:15:17;;;;;;;7.43;3.10;;;24.70;34.20;;;;;;4925823;29;20852;-85
2022/07/13 06:17:44;;;;;;;7.20;2.53;;;24.90;32.30;;;;;;4925728;29;20457;-86
2022/07/13 06:20:11;;;;;;;6.77;2.50;;;24.90;31.70;;;;;;4923920;29;21026;-86
2022/07/13 06:22:38;;;;;;;7.67;2.63;;;25.20;31.80;;;;;;4924458;29;20479;-85
2022/07/13 06:25:07;;;;;;;5.33;2.77;;;25.20;28.80;;;;;;4926062;29;20463;-86
2022/07/13 06:27:33;;;;;;;6.87;2.53;;;25.10;30.80;;;;;;4924098;29;20465;-85
2022/07/13 06:30:02;;;;;;;9.87;2.53;;;25.30;30.90;;;;;;4924091;29;20492;-86
2022/07/13 06:32:29;;;;;;;4.83;1.83;;;25.20;29.30;;;;;;4925515;29;20484;-84
2022/07/13 06:34:55;;;;;;;6.13;2.20;;;25.30;30.90;;;;;;4920619;29;20528;-85
2022/07/13 06:37:22;;;;;;;4.60;1.70;;;25.20;30.80;;;;;;4927919;29;20469;-86
2022/07/13 06:39:49;;;;;;;7.13;2.00;;;25.30;29.00;;;;;;4925991;29;20490;-86
2022/07/13 06:42:17;;;;;;;7.47;2.67;;;25.40;27.00;;;;;;4926632;29;20474;-86
2022/07/13 06:44:46;;;;;;;4.93;1.83;;;25.60;24.80;;;;;;4924978;29;20465;-85
2022/07/13 06:47:13;;;;;;;8.50;2.67;;;26.10;23.40;;;;;;4924515;29;20454;-86
2022/07/13 06:49:39;;;;;;;8.23;1.90;;;26.30;20.90;;;;;;4925635;29;20454;-85
2022/07/13 06:52:06;;;;;;;13.50;2.33;;;26.70;19.10;;;;;;4923831;29;20477;-86
2022/07/13 06:54:33;;;;;;;5.93;1.90;;;27.00;20.60;;;;;;4921332;29;20461;-86
2022/07/13 06:57:00;;;;;;;7.17;2.20;;;27.10;19.30;;;;;;4922114;29;20461;-86
2022/07/13 06:59:28;;;;;;;5.00;1.53;;;27.60;17.20;;;;;;4917360;29;20477;-87
2022/07/13 07:02:00;;;;;;;7.80;2.60;;;28.00;17.50;;;;;;4919505;29;20488;-85
2022/07/13 07:04:29;;;;;;;6.70;2.30;;;28.70;13.50;;;;;;4922423;29;20970;-85
2022/07/13 07:07:01;;;;;;;6.33;1.90;;;29.20;9.20;;;;;;4920996;29;20457;-85
2022/07/13 07:09:51;;;;;;;5.77;1.87;;;29.60;9.40;;;;;;4920398;29;20454;-85
2022/07/13 07:12:20;;;;;;;7.27;2.43;;;29.70;6.20;;;;;;4915283;29;20516;-85
2022/07/13 07:14:51;;;;;;;7.97;2.77;;;29.40;4.80;;;;;;4921914;29;20532;-85
2022/07/13 07:17:26;;;;;;;5.10;2.03;;;29.30;4.40;;;;;;4923923;29;20428;-84
2022/07/13 07:23:32;;;;;;;5.73;2.33;;;28.90;6.10;;;;;;4904840;29;20471;-85
2022/07/13 07:26:04;;;;;;;5.70;1.90;;;28.70;5.10;;;;;;4920118;29;20474;-84
2022/07/13 07:28:36;;;;;;;4.60;1.70;;;28.50;4.80;;;;;;4929494;29;20553;-84
2022/07/13 07:31:05;;;;;;;6.32;2.00;;;28.20;3.70;;;;;;4923725;29;20462;-87
2022/07/13 07:33:32;;;;;;;11.10;1.80;;;28.20;4.20;;;;;;4930202;29;20248;-84
2022/07/13 07:35:59;;;;;;;6.37;1.73;;;28.00;5.20;;;;;;4930405;29;20536;-86
2022/07/13 07:38:29;;;;;;;7.63;2.30;;;27.80;6.10;;;;;;4932548;29;20802;-85
2022/07/13 07:40:56;;;;;;;5.47;2.17;;;27.70;8.00;;;;;;4931984;29;20539;-86
2022/07/13 07:43:22;;;;;;;7.30;2.30;;;27.40;9.40;;;;;;4932037;29;20492;-85
2022/07/13 07:45:49;;;;;;;6.57;2.00;;;26.90;10.90;;;;;;4931947;29;20427;-84
2022/07/13 07:48:17;;;;;;;5.90;2.33;;;26.60;11.20;;;;;;4931054;29;20462;-82
2022/07/13 07:50:44;;;;;;;14.00;2.53;;;26.10;23.90;;;;;;4930450;29;20481;-82
2022/07/13 07:53:11;;;;;;;7.73;2.43;;;25.50;23.60;;;;;;4930372;29;20488;-82
2022/07/13 07:55:38;;;;;;;5.50;2.30;;;25.10;23.40;;;;;;4930009;29;20776;-82
2022/07/13 07:58:05;;;;;;;6.40;2.70;;;24.90;25.10;;;;;;4930437;29;20469;-83
2022/07/13 08:00:32;;;;;;;6.13;2.50;;;25.00;24.80;;;;;;4930878;29;20456;-82
2022/07/13 08:03:02;;;;;;;6.20;2.27;;;25.20;27.00;;;;;;4930603;29;20477;-82
2022/07/13 08:05:30;;;;;;;5.60;2.30;;;25.40;24.70;;;;;;4930886;29;20457;-83
2022/07/13 08:07:57;;;;;;;7.10;2.97;;;25.80;26.00;;;;;;4931185;29;20898;-83
2022/07/13 08:10:24;;;;;;;6.70;2.40;;;26.70;22.70;;;;;;4929950;29;20489;-82
2022/07/13 08:12:51;;;;;;;9.03;2.67;;;27.80;20.10;;;;;;4928829;29;20477;-83
2022/07/13 08:15:18;;;;;;;5.43;2.20;;;29.00;15.70;;;;;;4929399;29;20456;-84
2022/07/13 08:17:45;;;;;;;5.00;1.77;;;30.10;9.80;;;;;;4928390;29;20482;-82
2022/07/13 08:20:12;;;;;;;6.20;2.40;;;30.40;3.30;;;;;;4929747;29;20445;-83
2022/07/13 08:22:40;;;;;;;7.13;1.83;;;30.70;3.40;;;;;;4929712;29;20456;-82
2022/07/13 08:25:07;;;;;;;5.00;2.00;;;30.10;2.40;;;;;;4929777;29;20457;-85
2022/07/13 08:27:33;;;;;;;6.83;1.80;;;30.10;3.20;;;;;;4929805;29;20457;-83
2022/07/13 08:30:01;;;;;;;4.63;1.97;;;29.80;2.90;;;;;;4928819;29;20482;-84
2022/07/13 08:32:28;;;;;;;5.10;2.27;;;29.70;4.20;;;;;;4928513;29;20910;-84
2022/07/13 08:40:24;;;;;;;5.07;2.07;;;30.40;5.90;;;;;;4929916;29;20441;-84
2022/07/13 08:42:51;;;;;;;5.13;2.10;;;30.30;3.20;;;;;;4929957;29;20473;-84
2022/07/13 08:45:18;;;;;;;5.63;1.83;;;30.10;1.00;;;;;;4929963;29;20457;-83
2022/07/13 08:47:47;;;;;;;6.13;2.13;;;29.90;1.00;;;;;;4928700;29;20436;-84
2022/07/13 08:50:14;;;;;;;4.93;2.00;;;30.00;1.00;;;;;;4929989;29;20821;-84
2022/07/13 08:52:43;;;;;;;7.63;2.20;;;30.20;1.00;;;;;;4929777;29;20459;-82
2022/07/13 08:55:10;;;;;;;5.70;2.03;;;30.40;1.00;;;;;;4929442;29;20460;-82
2022/07/13 08:57:39;;;;;;;5.53;2.17;;;30.60;1.00;;;;;;4930179;29;20480;-84
2022/07/13 09:00:09;;;;;;;7.10;2.27;;;30.40;1.00;;;;;;4930805;29;20435;-84
2022/07/13 09:02:36;;;;;;;6.20;2.10;;;30.20;1.00;;;;;;4930707;29;20473;-84
2022/07/13 09:05:04;;;;;;;5.03;2.23;;;30.60;1.00;;;;;;4930823;29;20436;-84
2022/07/13 09:07:31;;;;;;;13.00;2.47;;;30.50;1.00;;;;;;4931543;29;20533;-85
2022/07/13 09:10:01;;;;;;;5.00;2.00;;;30.60;1.00;;;;;;4931273;29;20507;-83
2022/07/13 09:12:29;;;;;;;7.00;2.57;;;31.00;1.00;;;;;;4930318;29;20501;-83
2022/07/13 09:14:59;;;;;;;7.20;2.50;;;30.60;1.00;;;;;;4929329;29;20471;-83
2022/07/13 09:17:31;;;;;;;5.63;1.70;;;30.60;1.00;;;;;;4929822;29;20469;-85
2022/07/13 09:20:01;;;;;;;5.93;2.40;;;30.60;1.00;;;;;;4925958;29;20454;-80
2022/07/13 09:22:28;;;;;;;7.40;2.47;;;30.60;1.00;;;;;;4918965;29;20452;-80
2022/07/13 09:24:55;;;;;;;6.93;2.03;;;29.70;1.00;;;;;;4914549;29;20457;-80
2022/07/13 09:27:23;;;;;;;5.33;2.47;;;30.60;1.00;;;;;;4921719;29;20857;-82
2022/07/13 09:29:52;;;;;;;6.63;2.13;;;32.40;1.00;;;;;;4920472;29;20478;-83
2022/07/13 09:32:19;;;;;;;7.70;2.20;;;32.70;1.00;;;;;;4921336;29;20473;-81
2022/07/13 09:34:54;;;;;;;10.23;2.70;;;32.00;1.00;;;;;;4920815;29;20453;-83
2022/07/13 09:37:27;;;;;;;7.37;2.07;;;31.50;1.00;;;;;;4920253;29;20469;-83
2022/07/13 09:46:57;;;;;;;8.13;1.80;;;30.90;1.00;;;;;;4836513;29;21238;-84
2022/07/13 09:49:41;;;;;;;7.80;2.07;;;31.40;1.00;;;;;;4919302;29;20475;-83
2022/07/13 09:52:43;;;;;;;10.30;2.60;;;31.10;1.00;;;;;;4924258;29;20906;-85
2022/07/13 09:58:53;;;;;;;5.37;2.33;;;30.90;1.00;;;;;;4882429;29;20956;-85
2022/07/13 10:07:25;;;;;;;11.90;2.50;;;29.90;1.00;;;;;;4915724;29;20441;-86
2022/07/13 10:09:57;;;;;;;6.30;2.00;;;29.40;1.00;;;;;;4912763;29;20473;-85
2022/07/13 10:12:26;;;;;;;9.00;2.93;;;29.40;1.00;;;;;;4918848;29;20496;-86
2022/07/13 10:15:13;;;;;;;4.83;2.20;;;29.20;1.00;;;;;;4918893;29;20502;-84
2022/07/13 10:17:51;;;;;;;13.63;2.40;;;29.60;1.00;;;;;;4904465;29;20450;-87
2022/07/13 10:20:30;;;;;;;8.00;2.40;;;29.90;1.00;;;;;;4916543;29;20974;-85
2022/07/13 10:23:50;;;;;;;6.00;2.53;;;29.80;1.00;;;;;;4916463;29;20511;-85
2022/07/13 10:57:45;;;;;;;5.77;1.80;;;34.30;1.00;;;;;;4771933;29;20415;-87
2022/07/13 11:03:45;;;;;;;5.00;1.90;;;33.80;1.00;;;;;;4873829;29;20494;-86
2022/07/13 11:06:50;;;;;;;5.60;1.90;;;33.10;1.00;;;;;;4929121;29;20889;-86
2022/07/13 11:10:09;;;;;;;5.40;2.10;;;33.10;1.00;;;;;;4945450;29;20495;-87
2022/07/13 11:13:13;;;;;;;6.17;2.00;;;32.80;1.00;;;;;;4936907;29;20964;-85
2022/07/13 11:16:24;;;;;;;4.90;2.00;;;32.60;1.00;;;;;;4931779;29;20458;-84
2022/07/13 11:32:50;;;;;;;;;;;;;;;;;;;;;
2022/07/13 11:35:48;;;;;;;4.90;1.80;;;33.70;1.00;;;;;;4911254;29;20439;-85
2022/07/13 11:41:23;;;;;;;8.97;1.47;;;33.50;1.00;;;;;;4933902;29;20540;-85
2022/07/13 11:47:31;;;;;;;4.70;1.70;;;33.20;1.00;;;;;;4859961;29;20528;-86
2022/07/13 12:33:44;;;;;;;6.93;2.37;;;34.00;1.00;;;;;;4794026;29;20458;-84
2022/07/13 12:36:14;;;;;;;7.60;1.60;;;34.60;1.00;;;;;;4802820;29;20530;-84
2022/07/13 12:38:55;;;;;;;6.93;2.03;;;36.60;1.00;;;;;;4913710;29;20457;-84
2022/07/13 12:41:30;;;;;;;7.80;1.90;;;36.70;1.00;;;;;;4933596;29;20465;-84
2022/07/13 12:43:58;;;;;;;5.10;2.00;;;36.10;1.00;;;;;;4934918;29;20488;-84
2022/07/13 12:46:46;;;;;;;7.50;1.83;;;35.30;1.00;;;;;;4934436;29;20454;-85
2022/07/13 12:49:14;;;;;;;6.00;2.17;;;34.90;1.00;;;;;;4934508;29;20449;-86
2022/07/13 12:51:50;;;;;;;7.00;1.60;;;35.20;1.00;;;;;;4934248;29;20490;-85
2022/07/13 12:54:17;;;;;;;4.97;1.83;;;34.90;1.00;;;;;;4934032;29;20946;-85
2022/07/13 12:56:59;;;;;;;7.20;2.03;;;35.30;1.00;;;;;;4934318;29;20436;-86
2022/07/13 12:59:28;;;;;;;5.70;1.70;;;35.10;1.00;;;;;;4927969;29;20460;-84
2022/07/13 13:02:01;;;;;;;6.03;1.73;;;34.00;1.00;;;;;;4934246;29;21043;-84
2022/07/13 13:04:29;;;;;;;7.53;1.70;;;33.40;1.00;;;;;;4934774;29;20436;-86
2022/07/13 13:07:03;;;;;;;7.80;2.17;;;33.20;1.00;;;;;;4934072;29;20444;-85
2022/07/13 13:09:32;;;;;;;6.37;1.93;;;34.10;1.00;;;;;;4933662;29;20446;-84
2022/07/13 13:12:00;;;;;;;6.73;2.10;;;34.30;1.00;;;;;;4932338;29;20439;-86
2022/07/13 13:14:31;;;;;;;6.03;1.83;;;35.90;1.00;;;;;;4933667;29;20454;-84
2022/07/13 13:17:01;;;;;;;6.90;1.90;;;35.30;1.00;;;;;;4933457;29;20440;-85
2022/07/13 13:22:18;;;;;;;6.90;2.00;;;35.10;1.00;;;;;;4930208;29;20976;-83
2022/07/13 13:24:51;;;;;;;4.90;1.60;;;34.60;1.00;;;;;;4932331;29;20449;-84
2022/07/13 13:27:18;;;;;;;4.13;1.37;;;34.50;1.00;;;;;;4933407;29;20424;-86
2022/07/13 13:32:45;;;;;;;6.80;1.73;;;35.30;1.00;;;;;;5115180;27;1265455;-85
2022/07/13 13:35:13;;;;;;;8.80;2.07;;;34.50;1.00;;;;;;5147004;28;20198;-85
2022/07/13 13:37:46;;;;;;;7.53;2.10;;;33.70;1.00;;;;;;5146113;28;20482;-85
2022/07/13 13:40:13;;;;;;;4.40;1.33;;;34.30;1.00;;;;;;5146348;28;20435;-85
2022/07/13 13:42:53;;;;;;;5.43;1.60;;;34.30;1.00;;;;;;5146647;27;20455;-84
2022/07/13 13:45:38;;;;;;;5.50;2.13;;;34.30;1.00;;;;;;5146858;28;20440;-85
2022/07/13 13:48:31;;;;;;;9.30;2.23;;;34.20;1.00;;;;;;5144730;28;20998;-84
2022/07/13 13:50:59;;;;;;;4.60;1.70;;;35.10;1.00;;;;;;5144133;28;20506;-85
2022/07/13 13:53:29;;;;;;;6.20;2.13;;;34.60;1.00;;;;;;5126747;28;20475;-84
2022/07/13 13:56:05;;;;;;;7.07;2.33;;;35.20;1.00;;;;;;5144171;28;20422;-85
2022/07/13 13:58:41;;;;;;;5.27;1.87;;;34.70;1.00;;;;;;5146270;28;20443;-85
2022/07/13 14:01:11;;;;;;;6.25;2.40;;;33.70;1.00;;;;;;5144823;28;20449;-85
2022/07/13 14:04:08;;;;;;;4.40;1.60;;;33.40;1.00;;;;;;5132187;28;20583;-84
2022/07/13 14:07:26;;;;;;;5.40;2.20;;;32.70;1.00;;;;;;5127956;28;20423;-83
2022/07/13 14:10:01;;;;;;;5.10;2.47;;;32.20;1.00;;;;;;5129732;28;20467;-85
2022/07/13 14:15:49;;;;;;;5.57;2.30;;;32.40;1.00;;;;;;5084795;28;20449;-84
2022/07/13 14:18:48;;;;;;;6.73;2.20;;;32.40;1.00;;;;;;5089912;28;20420;-85
2022/07/13 14:27:51;;;;;;;5.30;2.50;;;32.20;1.00;;;;;;5066896;28;20458;-84
2022/07/13 14:33:20;;;;;;;6.47;2.27;;;32.10;1.00;;;;;;5065723;28;20536;-83
2022/07/13 14:35:47;;;;;;;5.60;2.13;;;31.40;1.00;;;;;;5071438;28;20515;-83
2022/07/13 14:38:52;;;;;;;;;;;;;;;;;;;;;
2022/07/13 14:41:37;;;;;;;5.30;2.07;;;31.10;1.00;;;;;;5071774;28;20414;-83
2022/07/13 14:48:02;;;;;;;14.20;1.90;;;30.60;1.00;;;;;;4987057;28;20558;-84
2022/07/13 14:50:37;;;;;;;5.37;2.30;;;30.40;1.00;;;;;;4995976;28;20481;-83
2022/07/13 14:53:38;;;;;;;9.20;2.00;;;30.10;1.00;;;;;;4996900;28;20560;-83
2022/07/13 14:56:33;;;;;;;9.60;2.00;;;30.10;1.00;;;;;;4991472;28;20487;-83
2022/07/13 14:59:10;;;;;;;4.73;1.30;;;30.30;1.00;;;;;;5059284;28;20473;-83
2022/07/13 15:04:54;;;;;;;7.23;1.73;;;30.50;1.00;;;;;;5059740;28;20455;-84
2022/07/13 15:07:30;;;;;;;4.57;1.70;;;31.80;1.00;;;;;;5057253;28;20447;-83
2022/07/13 15:10:15;;;;;;;7.50;1.77;;;32.50;1.00;;;;;;5059964;28;20490;-83
2022/07/13 15:13:10;;;;;;;4.87;1.90;;;33.00;1.00;;;;;;5062156;28;20528;-83
2022/07/13 15:18:56;;;;;;;4.83;1.60;;;32.50;1.00;;;;;;5051482;28;20445;-83
2022/07/13 15:28:20;;;;;;;4.30;1.50;;;33.00;1.00;;;;;;5052970;28;20786;-85
2022/07/13 15:31:13;;;;;;;5.77;1.60;;;33.10;1.00;;;;;;5058650;28;20418;-85
2022/07/13 15:40:08;;;;;;;6.10;1.70;;;31.70;1.00;;;;;;5074002;28;20441;-85
2022/07/13 15:43:10;;;;;;;9.00;1.90;;;31.90;1.00;;;;;;5073565;28;20458;-84
2022/07/13 15:46:03;;;;;;;5.03;1.90;;;31.20;1.00;;;;;;5076700;28;20763;-83
2022/07/13 15:51:44;;;;;;;5.13;1.93;;;29.80;1.00;;;;;;5069932;28;21002;-85
2022/07/13 15:54:37;;;;;;;10.00;2.00;;;29.60;1.00;;;;;;5057342;28;20985;-84
2022/07/13 15:57:32;;;;;;;6.20;1.83;;;29.60;1.00;;;;;;5055667;28;20852;-84
2022/07/13 16:09:13;;;;;;;4.10;1.23;;;28.70;1.00;;;;;;5051453;28;20432;-84
2022/07/13 16:18:21;;;;;;;5.33;1.80;;;28.70;1.00;;;;;;4982285;28;20521;-83
2022/07/13 16:21:18;;;;;;;7.43;1.60;;;28.40;1.00;;;;;;5012230;28;20572;-83
2022/07/13 16:27:03;;;;;;;6.70;1.87;;;28.00;1.00;;;;;;5034428;28;20531;-84
2022/07/13 16:32:54;;;;;;;5.20;2.17;;;27.80;1.00;;;;;;5015179;28;20536;-83
2022/07/13 16:36:05;;;;;;;7.70;2.80;;;27.70;1.00;;;;;;5019118;28;20483;-83
2022/07/13 16:45:26;;;;;;;5.33;2.47;;;27.00;1.00;;;;;;4830602;29;20454;-84
2022/07/13 16:51:26;;;;;;;4.53;1.43;;;27.60;1.00;;;;;;5025922;28;20805;-84
2022/07/13 16:57:14;;;;;;;6.40;2.20;;;27.20;1.00;;;;;;4992384;28;20517;-82
2022/07/13 17:00:22;;;;;;;5.07;1.57;;;26.90;1.00;;;;;;5034792;28;20539;-83
2022/07/13 17:03:24;;;;;;;4.77;1.70;;;26.90;1.00;;;;;;5026628;28;20567;-83
2022/07/13 17:09:08;;;;;;;12.33;2.57;;;27.30;1.00;;;;;;5030858;28;20524;-83
2022/07/13 17:12:19;;;;;;;6.13;2.30;;;27.00;1.00;;;;;;5027944;28;20446;-83
2022/07/13 17:15:11;;;;;;;5.20;2.10;;;26.60;1.00;;;;;;4953664;29;20831;-83
2022/07/13 17:17:46;;;;;;;4.87;1.83;;;26.50;1.00;;;;;;5015842;28;20810;-83
2022/07/13 17:27:14;;;;;;;6.93;1.50;;;25.90;1.00;;;;;;4968666;28;20455;-82
2022/07/13 17:53:25;;;;;;;8.07;1.80;;;24.00;13.10;;;;;;4983962;28;20474;-82
2022/07/13 18:00:08;;;;;;;4.90;1.90;;;23.40;40.50;;;;;;4904102;28;20466;-82
2022/07/13 18:02:35;;;;;;;5.33;2.17;;;23.10;35.30;;;;;;5011234;28;20470;-81
2022/07/13 18:05:28;;;;;;;6.70;2.30;;;22.90;33.10;;;;;;5020303;28;20447;-81
2022/07/13 18:08:16;;;;;;;6.37;2.10;;;22.80;37.90;;;;;;5032720;28;20471;-81
2022/07/13 18:10:47;;;;;;;4.90;1.93;;;22.80;36.30;;;;;;5033494;28;20517;-81
2022/07/13 18:22:16;;;;;;;5.27;1.77;;;22.70;31.00;;;;;;5017270;28;20544;-82
2022/07/13 18:25:16;;;;;;;5.40;2.20;;;22.70;32.80;;;;;;5018875;28;20836;-81
2022/07/13 18:28:31;;;;;;;;;;;;;;;;;;;;;
2022/07/13 18:31:33;;;;;;;;;;;;;;;;;;;;;
2022/07/13 18:34:13;;;;;;;5.60;2.30;;;23.00;31.40;;;;;;5037555;28;20433;-81
2022/07/13 18:37:12;;;;;;;6.60;2.23;;;23.00;28.70;;;;;;5036383;28;20463;-81
2022/07/13 18:40:05;;;;;;;5.03;2.07;;;23.20;28.60;;;;;;5037062;28;20483;-82
2022/07/13 18:43:15;;;;;;;10.70;2.60;;;23.10;27.60;;;;;;5017347;28;20472;-81
2022/07/13 18:45:51;;;;;;;13.17;2.70;;;23.30;26.70;;;;;;4988344;28;20484;-81
2022/07/13 18:48:18;;;;;;;8.83;2.17;;;23.30;25.50;;;;;;5037141;28;20482;-82
2022/07/13 18:50:46;;;;;;;5.73;2.10;;;23.40;24.00;;;;;;5037031;28;20907;-81
2022/07/13 18:53:15;;;;;;;6.90;2.03;;;23.40;24.00;;;;;;5036247;28;20486;-81
2022/07/13 18:55:48;;;;;;;13.53;2.40;;;23.40;26.00;;;;;;5037127;28;20480;-82
2022/07/13 18:58:18;;;;;;;10.37;2.33;;;23.40;25.40;;;;;;5035576;28;20516;-82
2022/07/13 19:00:46;;;;;;;7.37;2.20;;;23.80;24.40;;;;;;5037891;28;20530;-81
2022/07/13 19:03:29;;;;;;;8.77;2.67;;;23.80;25.80;;;;;;5020314;28;20998;-81
2022/07/13 19:05:56;;;;;;;7.03;2.67;;;23.80;25.50;;;;;;5026700;28;20499;-81
2022/07/13 19:08:38;;;;;;;5.87;2.47;;;23.50;24.50;;;;;;5037272;28;20450;-82
2022/07/13 19:11:12;;;;;;;9.27;2.30;;;23.30;22.10;;;;;;5036311;28;20994;-81
2022/07/13 19:13:39;;;;;;;5.70;2.37;;;23.20;22.60;;;;;;5037003;28;20493;-81
2022/07/13 19:16:18;;;;;;;5.60;2.50;;;23.10;22.00;;;;;;5036328;28;20461;-82
2022/07/13 19:18:52;;;;;;;8.30;2.50;;;23.10;23.60;;;;;;5037096;28;20461;-82
2022/07/13 19:21:31;;;;;;;6.20;2.07;;;23.00;23.80;;;;;;5036471;28;20455;-82
2022/07/13 19:24:14;;;;;;;5.20;2.00;;;22.90;25.20;;;;;;5035007;28;20870;-82
2022/07/13 19:29:44;;;;;;;5.80;2.10;;;22.90;21.90;;;;;;5035632;28;20494;-82
2022/07/13 19:32:24;;;;;;;7.77;1.80;;;22.80;24.10;;;;;;5036517;28;20480;-83
2022/07/13 19:34:51;;;;;;;11.90;2.30;;;22.70;22.30;;;;;;5036674;28;20459;-82
2022/07/13 19:37:18;;;;;;;6.97;2.10;;;22.60;22.60;;;;;;5037145;28;21033;-82
2022/07/13 19:39:49;;;;;;;8.10;2.23;;;22.60;24.00;;;;;;5036186;28;20941;-83
2022/07/13 19:42:16;;;;;;;9.10;2.03;;;22.50;28.20;;;;;;5036698;28;20477;-83
2022/07/13 19:58:51;;;;;;;8.53;2.07;;;21.70;26.50;;;;;;4916032;29;20461;-83
2022/07/13 20:01:54;;;;;;;5.73;2.07;;;21.70;26.00;;;;;;4956073;28;20465;-83